createdAt,value
2019-01-18T00:01:22.788Z,1.70
2019-01-18T00:03:50.020Z,1.70
2019-01-18T00:06:17.286Z,1.70
2019-01-18T00:08:44.629Z,1.80
2019-01-18T00:11:11.880Z,1.80
2019-01-18T00:13:39.050Z,1.80
2019-01-18T00:16:06.316Z,1.80
2019-01-18T00:18:33.586Z,1.80
2019-01-18T00:21:00.790Z,1.80
2019-01-18T00:23:28.767Z,1.80
2019-01-18T00:25:56.086Z,1.90
2019-01-18T00:28:23.271Z,1.80
2019-01-18T00:30:50.541Z,1.90
2019-01-18T00:33:17.764Z,1.90
2019-01-18T00:35:45.011Z,1.90
2019-01-18T00:38:12.168Z,1.90
2019-01-18T00:40:39.297Z,1.90
2019-01-18T00:43:06.475Z,1.90
2019-01-18T00:45:33.742Z,1.90
2019-01-18T00:48:01.019Z,1.90
2019-01-18T00:50:28.239Z,1.90
2019-01-18T00:52:55.528Z,1.90
2019-01-18T00:55:22.653Z,2.00
2019-01-18T00:57:49.792Z,2.00
2019-01-18T01:00:19.909Z,2.10
2019-01-18T01:02:47.148Z,2.10
2019-01-18T01:05:15.110Z,2.10
2019-01-18T01:07:42.338Z,2.00
2019-01-18T01:10:09.894Z,1.90
2019-01-18T01:12:37.128Z,1.90
2019-01-18T01:15:06.680Z,1.80
2019-01-18T01:17:33.982Z,1.70
2019-01-18T01:20:01.234Z,1.30
2019-01-18T01:22:28.412Z,0.90
2019-01-18T01:24:55.649Z,0.80
2019-01-18T01:27:22.870Z,0.70
2019-01-18T01:29:50.156Z,0.60
2019-01-18T01:32:17.488Z,0.50
2019-01-18T01:34:44.730Z,0.50
2019-01-18T01:37:12.021Z,0.40
2019-01-18T01:39:39.143Z,0.40
2019-01-18T01:42:06.420Z,0.40
2019-01-18T01:44:33.639Z,0.40
2019-01-18T01:47:00.911Z,0.40
2019-01-18T01:49:28.179Z,0.40
2019-01-18T01:51:55.433Z,0.50
2019-01-18T01:54:22.574Z,0.50
2019-01-18T01:56:49.839Z,0.50
2019-01-18T01:59:17.157Z,0.40
2019-01-18T02:01:44.421Z,0.40
2019-01-18T02:04:11.695Z,0.50
2019-01-18T02:06:39.010Z,0.40
2019-01-18T02:09:06.539Z,0.40
2019-01-18T02:11:33.829Z,0.40
2019-01-18T02:14:01.082Z,0.40
2019-01-18T02:16:28.364Z,0.40
2019-01-18T02:18:55.495Z,0.40
2019-01-18T02:21:22.736Z,0.40
2019-01-18T02:23:49.971Z,0.40
2019-01-18T02:26:17.132Z,0.40
2019-01-18T02:28:44.436Z,0.40
2019-01-18T02:31:11.583Z,0.50
2019-01-18T02:33:38.823Z,0.50
2019-01-18T02:36:05.990Z,0.50
2019-01-18T02:38:33.236Z,0.40
2019-01-18T02:41:00.502Z,0.40
2019-01-18T02:43:27.770Z,0.40
2019-01-18T02:45:54.922Z,0.30
2019-01-18T02:48:22.155Z,0.30
2019-01-18T02:50:49.849Z,0.30
2019-01-18T02:53:17.088Z,0.30
2019-01-18T02:55:44.338Z,0.30
2019-01-18T02:58:11.604Z,0.30
2019-01-18T03:00:38.841Z,0.30
2019-01-18T03:03:06.102Z,0.30
2019-01-18T03:05:33.338Z,0.20
2019-01-18T03:08:00.688Z,0.20
2019-01-18T03:10:29.206Z,0.20
2019-01-18T03:12:56.441Z,0.20
2019-01-18T03:15:23.582Z,0.20
2019-01-18T03:17:50.859Z,0.20
2019-01-18T03:20:18.157Z,0.20
2019-01-18T03:22:45.661Z,0.20
2019-01-18T03:25:15.537Z,0.20
2019-01-18T03:27:42.813Z,0.20
2019-01-18T03:30:19.027Z,0.20
2019-01-18T03:32:41.667Z,0.20
2019-01-18T03:35:10.581Z,0.10
2019-01-18T03:37:37.935Z,0.10
2019-01-18T03:40:05.094Z,0.10
2019-01-18T03:42:32.369Z,0.10
2019-01-18T03:44:59.533Z,0.10
2019-01-18T03:47:26.702Z,0.10
2019-01-18T03:49:53.987Z,0.10
2019-01-18T03:52:21.113Z,0.00
2019-01-18T03:54:48.346Z,0.00
2019-01-18T03:57:15.578Z,0.00
2019-01-18T03:59:42.830Z,0.00
2019-01-18T04:02:10.127Z,-0.10
2019-01-18T04:04:37.255Z,-0.10
2019-01-18T04:07:04.599Z,-0.10
2019-01-18T04:09:31.829Z,-0.10
2019-01-18T04:11:59.080Z,0.00
2019-01-18T04:14:26.320Z,0.00
2019-01-18T04:16:53.758Z,0.00
2019-01-18T04:19:21.022Z,0.00
2019-01-18T04:21:48.303Z,0.00
2019-01-18T04:24:15.551Z,0.00
2019-01-18T04:26:42.710Z,0.00
2019-01-18T04:29:09.976Z,-0.10
2019-01-18T04:31:37.218Z,-0.20
2019-01-18T04:34:04.453Z,-0.20
2019-01-18T04:36:31.732Z,-0.20
2019-01-18T04:38:58.959Z,-0.20
2019-01-18T04:41:26.218Z,-0.20
2019-01-18T04:43:53.467Z,-0.10
2019-01-18T04:46:20.838Z,-0.10
2019-01-18T04:48:48.163Z,-0.10
2019-01-18T04:51:15.399Z,-0.10
2019-01-18T04:53:42.529Z,0.00
2019-01-18T04:56:09.807Z,0.00
2019-01-18T04:58:36.948Z,0.00
2019-01-18T05:01:04.158Z,-0.10
2019-01-18T05:03:31.337Z,-0.10
2019-01-18T05:05:58.454Z,-0.10
2019-01-18T05:08:25.709Z,-0.10
2019-01-18T05:10:52.824Z,-0.10
2019-01-18T05:13:20.080Z,-0.10
2019-01-18T05:15:47.276Z,-0.10
2019-01-18T05:18:14.443Z,-0.20
2019-01-18T05:20:41.563Z,-0.20
2019-01-18T05:23:08.800Z,-0.10
2019-01-18T05:25:36.046Z,-0.10
2019-01-18T05:28:03.302Z,-0.10
2019-01-18T05:30:30.539Z,-0.20
2019-01-18T05:32:57.690Z,-0.10
2019-01-18T05:35:25.113Z,-0.10
2019-01-18T05:37:52.339Z,-0.10
2019-01-18T05:40:19.620Z,-0.20
2019-01-18T05:42:47.082Z,-0.20
2019-01-18T05:45:15.889Z,-0.20
2019-01-18T05:47:43.154Z,-0.20
2019-01-18T05:50:15.308Z,-0.20
2019-01-18T05:52:42.597Z,-0.20
2019-01-18T05:55:10.041Z,-0.20
2019-01-18T05:57:37.310Z,-0.20
2019-01-18T06:00:09.192Z,-0.20
2019-01-18T06:02:36.451Z,-0.20
2019-01-18T06:05:06.447Z,-0.10
2019-01-18T06:07:33.721Z,-0.10
2019-01-18T06:10:00.988Z,-0.20
2019-01-18T06:12:28.112Z,-0.20
2019-01-18T06:14:55.367Z,-0.20
2019-01-18T06:17:22.512Z,-0.20
2019-01-18T06:19:49.796Z,-0.20
2019-01-18T06:22:17.046Z,-0.20
2019-01-18T06:24:44.331Z,-0.20
2019-01-18T06:27:11.491Z,-0.30
2019-01-18T06:29:38.822Z,-0.30
2019-01-18T06:32:05.954Z,-0.30
2019-01-18T06:34:33.135Z,-0.20
2019-01-18T06:37:00.398Z,-0.20
2019-01-18T06:39:27.635Z,-0.20
2019-01-18T06:41:55.044Z,-0.20
2019-01-18T06:44:22.825Z,-0.20
2019-01-18T06:46:50.528Z,-0.20
2019-01-18T06:49:18.390Z,-0.30
2019-01-18T06:51:45.670Z,-0.40
2019-01-18T06:54:12.947Z,-0.30
2019-01-18T06:56:40.093Z,-0.30
2019-01-18T06:59:07.367Z,-0.30
2019-01-18T07:01:34.582Z,-0.30
2019-01-18T07:04:01.887Z,-0.30
2019-01-18T07:06:29.031Z,-0.30
2019-01-18T07:08:56.285Z,-0.30
2019-01-18T07:11:23.565Z,-0.30
2019-01-18T07:13:50.865Z,-0.30
2019-01-18T07:16:18.083Z,-0.30
2019-01-18T07:18:45.363Z,-0.20
2019-01-18T07:21:12.607Z,-0.20
2019-01-18T07:23:39.755Z,-0.20
2019-01-18T07:26:06.889Z,-0.20
2019-01-18T07:28:34.870Z,-0.20
2019-01-18T07:31:02.129Z,-0.20
2019-01-18T07:33:29.306Z,-0.10
2019-01-18T07:35:56.459Z,0.00
2019-01-18T07:38:23.700Z,-0.10
2019-01-18T07:40:51.084Z,0.00
2019-01-18T07:43:18.349Z,0.00
2019-01-18T07:45:45.798Z,0.00
2019-01-18T07:48:13.152Z,0.00
2019-01-18T07:50:40.320Z,-0.10
2019-01-18T07:53:07.558Z,0.00
2019-01-18T07:55:34.792Z,0.00
2019-01-18T07:58:02.053Z,0.10
2019-01-18T08:00:29.538Z,0.10
2019-01-18T08:02:56.922Z,-0.10
2019-01-18T08:05:26.409Z,-0.10
2019-01-18T08:07:53.635Z,-0.10
2019-01-18T08:10:20.939Z,-0.10
2019-01-18T08:12:48.171Z,0.00
2019-01-18T08:15:19.967Z,0.00
2019-01-18T08:17:47.220Z,0.00
2019-01-18T08:20:15.761Z,0.10
2019-01-18T08:22:43.210Z,0.00
2019-01-18T08:25:11.383Z,0.10
2019-01-18T08:27:38.622Z,0.20
2019-01-18T08:30:09.115Z,0.40
2019-01-18T08:32:36.397Z,0.60
2019-01-18T08:35:04.117Z,0.60
2019-01-18T08:37:31.308Z,0.70
2019-01-18T08:39:58.575Z,0.60
2019-01-18T08:42:25.730Z,0.80
2019-01-18T08:44:53.051Z,1.10
2019-01-18T08:47:20.331Z,1.30
2019-01-18T08:49:47.568Z,1.20
2019-01-18T08:52:14.824Z,1.20
2019-01-18T08:54:42.092Z,1.30
2019-01-18T08:57:09.358Z,1.10
2019-01-18T08:59:36.636Z,0.80
2019-01-18T09:02:03.865Z,0.80
2019-01-18T09:04:31.121Z,0.90
2019-01-18T09:06:58.393Z,0.70
2019-01-18T09:09:25.653Z,0.60
2019-01-18T09:11:52.869Z,0.70
2019-01-18T09:14:20.123Z,0.80
2019-01-18T09:16:47.376Z,0.80
2019-01-18T09:19:14.625Z,1.00
2019-01-18T09:21:41.869Z,1.00
2019-01-18T09:24:08.990Z,1.30
2019-01-18T09:26:36.247Z,1.40
2019-01-18T09:29:03.594Z,1.30
2019-01-18T09:31:30.750Z,1.00
2019-01-18T09:33:57.885Z,0.80
2019-01-18T09:36:25.064Z,0.90
2019-01-18T09:38:52.306Z,1.00
2019-01-18T09:41:19.573Z,1.00
2019-01-18T09:43:46.813Z,1.10
2019-01-18T09:46:14.043Z,1.30
2019-01-18T09:48:41.173Z,1.10
2019-01-18T09:51:08.326Z,0.90
2019-01-18T09:53:35.569Z,0.80
2019-01-18T09:56:03.001Z,0.80
2019-01-18T09:58:30.166Z,0.70
2019-01-18T10:00:57.424Z,0.80
2019-01-18T10:03:24.647Z,1.00
2019-01-18T10:05:51.921Z,0.90
2019-01-18T10:08:19.228Z,1.00
2019-01-18T10:10:46.449Z,1.10
2019-01-18T10:13:13.774Z,1.30
2019-01-18T10:15:43.022Z,1.40
2019-01-18T10:18:10.221Z,1.30
2019-01-18T10:20:37.466Z,1.20
2019-01-18T10:23:04.843Z,1.20
2019-01-18T10:25:32.026Z,1.50
2019-01-18T10:28:00.521Z,1.60
2019-01-18T10:30:28.014Z,1.40
2019-01-18T10:32:55.411Z,1.40
2019-01-18T10:35:22.853Z,1.30
2019-01-18T10:37:50.101Z,1.10
2019-01-18T10:40:17.589Z,1.10
2019-01-18T10:42:45.044Z,1.10
2019-01-18T10:45:12.985Z,1.00
2019-01-18T10:47:40.225Z,1.00
2019-01-18T10:50:10.486Z,1.30
2019-01-18T10:52:37.763Z,1.50
2019-01-18T10:55:05.534Z,1.80
2019-01-18T10:57:32.810Z,2.60
2019-01-18T10:59:59.964Z,4.00
2019-01-18T11:02:27.209Z,6.60
2019-01-18T11:04:54.387Z,7.80
2019-01-18T11:07:21.669Z,8.20
2019-01-18T11:09:48.928Z,9.10
2019-01-18T11:12:16.198Z,11.60
2019-01-18T11:14:43.427Z,11.10
2019-01-18T11:17:10.738Z,10.90
2019-01-18T11:19:37.871Z,9.40
2019-01-18T11:22:05.056Z,8.80
2019-01-18T11:24:32.316Z,8.80
2019-01-18T11:26:59.579Z,8.10
2019-01-18T11:29:26.982Z,7.10
2019-01-18T11:31:54.330Z,5.70
2019-01-18T11:34:21.486Z,5.10
2019-01-18T11:36:48.723Z,4.50
2019-01-18T11:39:16.114Z,3.90
2019-01-18T11:41:43.353Z,3.40
2019-01-18T11:44:10.660Z,2.90
2019-01-18T11:46:37.912Z,2.60
2019-01-18T11:49:05.190Z,2.70
2019-01-18T11:51:32.313Z,2.60
2019-01-18T11:53:59.609Z,2.30
2019-01-18T11:56:26.849Z,2.10
2019-01-18T11:58:54.095Z,2.00
2019-01-18T12:01:21.278Z,1.80
2019-01-18T12:03:48.487Z,1.90
2019-01-18T12:06:15.761Z,1.90
2019-01-18T12:08:43.010Z,1.90
2019-01-18T12:11:10.359Z,1.90
2019-01-18T12:13:37.653Z,1.90
2019-01-18T12:16:04.969Z,1.90
2019-01-18T12:18:32.205Z,1.90
2019-01-18T12:20:59.404Z,2.00
2019-01-18T12:23:26.684Z,2.00
2019-01-18T12:25:53.949Z,2.10
2019-01-18T12:28:22.559Z,2.40
2019-01-18T12:31:00.440Z,2.20
2019-01-18T12:33:29.713Z,2.10
2019-01-18T12:36:19.843Z,1.90
2019-01-18T12:38:51.051Z,1.90
2019-01-18T12:41:20.082Z,1.90
2019-01-18T12:43:48.644Z,1.90
2019-01-18T12:46:16.970Z,1.90
2019-01-18T12:48:44.334Z,1.70
2019-01-18T12:51:11.662Z,1.80
2019-01-18T12:53:38.953Z,1.80
2019-01-18T12:56:06.202Z,1.70
2019-01-18T12:58:33.462Z,1.70
2019-01-18T13:01:00.752Z,1.60
2019-01-18T13:03:27.991Z,1.50
2019-01-18T13:05:55.179Z,1.50
2019-01-18T13:08:22.421Z,1.50
2019-01-18T13:10:49.598Z,1.50
2019-01-18T13:13:16.831Z,1.60
2019-01-18T13:16:15.051Z,1.60
2019-01-18T13:18:44.569Z,1.70
2019-01-18T13:21:11.862Z,1.90
2019-01-18T13:23:39.145Z,2.00
2019-01-18T13:26:06.373Z,2.10
2019-01-18T13:28:33.636Z,2.30
2019-01-18T13:31:00.887Z,2.40
2019-01-18T13:33:28.142Z,2.60
2019-01-18T13:35:55.393Z,2.80
2019-01-18T13:38:22.684Z,2.90
2019-01-18T13:40:49.946Z,2.70
2019-01-18T13:43:17.237Z,2.10
2019-01-18T13:45:44.594Z,1.90
2019-01-18T13:48:11.873Z,2.10
2019-01-18T13:50:39.244Z,2.20
2019-01-18T13:53:06.471Z,2.20
2019-01-18T13:55:33.627Z,2.00
2019-01-18T13:58:00.882Z,1.90
2019-01-18T14:00:28.156Z,2.00
2019-01-18T14:02:55.544Z,2.00
2019-01-18T14:05:22.801Z,1.80
2019-01-18T14:07:53.466Z,1.60
2019-01-18T14:10:21.698Z,1.30
2019-01-18T14:12:48.942Z,1.20
2019-01-18T14:15:18.554Z,1.10
2019-01-18T14:17:45.808Z,1.20
2019-01-18T14:20:13.293Z,1.20
2019-01-18T14:22:40.566Z,1.20
2019-01-18T14:25:08.358Z,1.10
2019-01-18T14:27:35.531Z,1.00
2019-01-18T14:30:05.330Z,0.90
2019-01-18T14:32:32.591Z,1.00
2019-01-18T14:34:59.723Z,1.00
2019-01-18T14:37:26.891Z,1.00
2019-01-18T14:39:54.111Z,1.00
2019-01-18T14:42:21.290Z,0.90
2019-01-18T14:44:48.511Z,0.70
2019-01-18T14:47:15.747Z,0.50
2019-01-18T14:49:43.010Z,0.40
2019-01-18T14:52:10.317Z,0.30
2019-01-18T14:54:37.589Z,0.40
2019-01-18T14:57:04.836Z,0.40
2019-01-18T14:59:32.315Z,0.40
2019-01-18T15:01:59.496Z,0.30
2019-01-18T15:04:26.687Z,0.20
2019-01-18T15:06:55.717Z,0.10
2019-01-18T15:09:22.970Z,0.10
2019-01-18T15:11:50.198Z,0.00
2019-01-18T15:14:17.459Z,-0.10
2019-01-18T15:16:44.666Z,-0.10
2019-01-18T15:19:11.902Z,-0.20
2019-01-18T15:21:39.150Z,-0.20
2019-01-18T15:24:06.390Z,-0.20
2019-01-18T15:26:33.580Z,-0.20
2019-01-18T15:29:00.820Z,-0.30
2019-01-18T15:31:28.069Z,-0.40
2019-01-18T15:33:56.357Z,-0.40
2019-01-18T15:36:23.658Z,-0.40
2019-01-18T15:38:50.856Z,-0.50
2019-01-18T15:41:18.131Z,-0.50
2019-01-18T15:43:45.355Z,-0.60
2019-01-18T15:46:12.636Z,-0.70
2019-01-18T15:48:39.960Z,-0.80
2019-01-18T15:51:07.205Z,-0.80
2019-01-18T15:53:34.495Z,-0.80
2019-01-18T15:56:03.534Z,-0.90
2019-01-18T15:58:30.784Z,-0.90
2019-01-18T16:00:58.047Z,-1.00
2019-01-18T16:03:25.271Z,-1.00
2019-01-18T16:05:52.529Z,-1.00
2019-01-18T16:08:19.785Z,-1.10
2019-01-18T16:10:47.043Z,-1.10
2019-01-18T16:13:14.318Z,-1.10
2019-01-18T16:16:07.111Z,-1.10
2019-01-18T16:18:34.361Z,-1.00
2019-01-18T16:21:02.637Z,-1.20
2019-01-18T16:23:29.983Z,-1.20
2019-01-18T16:25:57.211Z,-1.20
2019-01-18T16:28:24.451Z,-1.30
2019-01-18T16:30:51.613Z,-1.30
2019-01-18T16:33:23.338Z,-1.30
2019-01-18T16:35:48.031Z,-1.20
2019-01-18T16:38:15.181Z,-1.30
2019-01-18T16:40:42.424Z,-1.30
2019-01-18T16:43:13.549Z,-1.30
2019-01-18T16:45:40.770Z,-1.30
2019-01-18T16:48:07.940Z,-1.30
2019-01-18T16:50:35.158Z,-1.40
2019-01-18T16:53:02.610Z,-1.50
2019-01-18T16:55:29.871Z,-1.50
2019-01-18T16:57:57.144Z,-1.50
2019-01-18T17:00:30.413Z,-1.60
2019-01-18T17:02:57.600Z,-1.60
2019-01-18T17:05:24.896Z,-1.60
2019-01-18T17:07:52.185Z,-1.60
2019-01-18T17:10:19.574Z,-1.50
2019-01-18T17:12:46.829Z,-1.40
2019-01-18T17:15:14.133Z,-1.50
2019-01-18T17:17:41.494Z,-1.50
2019-01-18T17:20:18.406Z,-1.50
2019-01-18T17:22:45.801Z,-1.50
2019-01-18T17:25:13.186Z,-1.50
2019-01-18T17:27:40.358Z,-1.50
2019-01-18T17:30:10.739Z,-1.70
2019-01-18T17:32:38.041Z,-1.80
2019-01-18T17:35:09.361Z,-1.90
2019-01-18T17:37:39.655Z,-1.90
2019-01-18T17:40:46.615Z,-2.00
2019-01-18T17:43:39.633Z,-2.00
2019-01-18T17:46:46.870Z,-2.00
2019-01-18T17:50:03.974Z,-2.00
2019-01-18T17:53:11.758Z,-1.90
2019-01-18T17:56:03.300Z,-2.00
2019-01-18T17:58:55.250Z,-1.90
2019-01-18T18:02:06.944Z,-2.00
2019-01-18T18:05:27.866Z,-1.90
2019-01-18T18:08:22.032Z,-2.00
2019-01-18T18:11:47.853Z,-2.20
2019-01-18T18:14:38.871Z,-2.20
2019-01-18T18:17:22.507Z,-2.20
2019-01-18T18:20:52.753Z,-2.10
2019-01-18T18:23:51.475Z,-2.10
2019-01-18T18:26:59.245Z,-2.10
2019-01-18T18:30:04.119Z,-2.00
2019-01-18T18:33:21.882Z,-1.90
2019-01-18T18:36:51.971Z,-2.00
2019-01-18T18:40:00.910Z,-2.20
2019-01-18T18:42:51.486Z,-2.20
2019-01-18T18:45:47.607Z,-2.00
2019-01-18T18:48:37.961Z,-2.00
2019-01-18T18:51:53.103Z,-1.90
2019-01-18T18:54:58.440Z,-1.90
2019-01-18T18:58:00.600Z,-1.90
2019-01-18T19:01:11.265Z,-2.00
2019-01-18T19:04:35.686Z,-2.10
2019-01-18T19:07:41.890Z,-2.10
2019-01-18T19:10:50.826Z,-2.10
2019-01-18T19:13:51.057Z,-2.10
2019-01-18T19:16:48.238Z,-2.10
2019-01-18T19:19:51.701Z,-2.30
2019-01-18T19:22:36.826Z,-2.30
2019-01-18T19:25:42.625Z,-2.30
2019-01-18T19:28:47.432Z,-2.30
2019-01-18T19:32:11.227Z,-2.30
2019-01-18T19:34:57.877Z,-2.40
2019-01-18T19:38:01.594Z,-2.40
2019-01-18T19:40:50.917Z,-2.40
2019-01-18T19:43:43.475Z,-2.40
2019-01-18T19:46:57.211Z,-2.50
2019-01-18T19:50:24.106Z,-2.50
2019-01-18T19:53:40.731Z,-2.40
2019-01-18T19:57:07.730Z,-2.40
2019-01-18T20:00:12.729Z,-2.60
2019-01-18T20:03:01.705Z,-2.70
2019-01-18T20:05:56.771Z,-2.70
2019-01-18T20:09:05.102Z,-2.60
2019-01-18T20:11:55.823Z,-2.60
2019-01-18T20:14:43.186Z,-2.70
2019-01-18T20:17:41.654Z,-2.60
2019-01-18T20:21:05.882Z,-2.60
2019-01-18T20:24:16.767Z,-2.70
2019-01-18T20:27:38.160Z,-2.80
2019-01-18T20:30:50.065Z,-2.70
2019-01-18T20:34:11.080Z,-2.80
2019-01-18T20:37:03.652Z,-2.70
2019-01-18T20:40:17.318Z,-2.80
2019-01-18T20:43:17.114Z,-3.10
2019-01-18T20:46:06.573Z,-3.20
2019-01-18T20:48:59.774Z,-3.20
2019-01-18T20:51:59.692Z,-3.10
2019-01-18T20:55:12.355Z,-2.80
2019-01-18T20:58:34.452Z,-2.90
2019-01-18T21:01:44.617Z,-3.00
2019-01-18T21:04:29.042Z,-3.10
2019-01-18T21:07:26.450Z,-3.10
2019-01-18T21:10:35.621Z,-3.10
2019-01-18T21:13:59.939Z,-3.20
2019-01-18T21:17:14.799Z,-3.30
2019-01-18T21:20:18.404Z,-3.40
2019-01-18T21:23:15.381Z,-3.30
2019-01-18T21:26:09.876Z,-3.30
2019-01-18T21:29:13.491Z,-3.40
2019-01-18T21:32:06.706Z,-3.40
2019-01-18T21:35:11.499Z,-3.30
2019-01-18T21:37:59.074Z,-3.20
2019-01-18T21:41:02.426Z,-3.10
2019-01-18T21:44:26.496Z,-3.10
2019-01-18T21:47:36.579Z,-3.20
2019-01-18T21:50:31.898Z,-3.10
2019-01-18T21:53:28.808Z,-3.10
2019-01-18T21:56:43.820Z,-3.30
2019-01-18T21:59:54.846Z,-3.40
2019-01-18T22:02:39.446Z,-3.60
2019-01-18T22:05:43.694Z,-3.70
2019-01-18T22:08:43.290Z,-3.80
2019-01-18T22:12:07.498Z,-3.70
2019-01-18T22:14:59.762Z,-3.70
2019-01-18T22:18:05.600Z,-3.60
2019-01-18T22:21:08.378Z,-3.50
2019-01-18T22:23:44.447Z,-3.60
2019-01-18T22:26:38.271Z,-3.60
2019-01-18T22:29:56.350Z,-3.50
2019-01-18T22:32:51.881Z,-3.60
2019-01-18T22:35:47.910Z,-3.60
2019-01-18T22:39:03.884Z,-3.90
2019-01-18T22:42:07.692Z,-3.90
2019-01-18T22:45:11.357Z,-3.90
2019-01-18T22:48:10.349Z,-4.00
2019-01-18T22:51:19.371Z,-4.00
2019-01-18T22:54:30.466Z,-3.90
2019-01-18T22:57:38.135Z,-3.80
2019-01-18T23:00:56.765Z,-3.90
2019-01-18T23:04:09.141Z,-3.80
2019-01-18T23:07:10.381Z,-3.70
2019-01-18T23:10:15.772Z,-3.60
2019-01-18T23:12:55.682Z,-3.60
2019-01-18T23:16:22.998Z,-3.60
2019-01-18T23:18:58.469Z,-3.60
2019-01-18T23:22:21.630Z,-3.70
2019-01-18T23:25:21.108Z,-3.70
2019-01-18T23:28:27.211Z,-3.70
2019-01-18T23:31:16.417Z,-3.70
2019-01-18T23:33:52.240Z,-3.70
2019-01-18T23:36:37.060Z,-3.60
2019-01-18T23:39:40.238Z,-3.70
2019-01-18T23:42:51.981Z,-3.60
2019-01-18T23:45:42.586Z,-3.70
2019-01-18T23:48:42.945Z,-3.60
2019-01-18T23:51:37.227Z,-3.60
2019-01-18T23:54:47.807Z,-3.60
2019-01-18T23:57:25.429Z,-3.60
